Time;durP1;ratioP1;P1;durP2;ratioP2;P2;SDS_P1;SDS_P2;PMS_P1;PMS_P2;Temp;Humidity;BMP_temperature;BMP_pressure;BME280_temperature;BME280_humidity;BME280_pressure;Samples;Min_cycle;Max_cycle;Signal;HPM_P1;HPM_P2
2021/01/17 00:00:54;;;;;;;14.38;4.90;;;3.30;83.40;;;;;;5013385;28;20112;-77
2021/01/17 00:03:21;;;;;;;12.50;4.82;;;3.30;83.50;;;;;;5014700;28;20057;-78
2021/01/17 00:05:50;;;;;;;16.70;5.80;;;3.30;83.40;;;;;;5013734;28;20049;-77
2021/01/17 00:08:20;;;;;;;10.35;4.15;;;3.30;83.50;;;;;;5015078;28;20022;-77
2021/01/17 00:10:46;;;;;;;14.25;5.28;;;3.30;83.50;;;;;;5014061;28;20026;-77
2021/01/17 00:13:12;;;;;;;14.95;5.15;;;3.30;83.50;;;;;;5013657;28;20092;-78
2021/01/17 00:15:38;;;;;;;13.10;4.65;;;3.30;83.50;;;;;;5013811;28;20091;-77
2021/01/17 00:18:05;;;;;;;15.45;6.22;;;3.30;83.50;;;;;;5015082;28;20538;-77
2021/01/17 00:20:31;;;;;;;16.17;5.30;;;3.30;83.60;;;;;;5014446;28;20081;-77
2021/01/17 00:23:04;;;;;;;9.93;5.28;;;3.30;83.60;;;;;;5013609;28;20360;-76
2021/01/17 00:25:31;;;;;;;15.25;5.38;;;3.30;83.60;;;;;;5013492;28;20046;-76
2021/01/17 00:27:58;;;;;;;16.05;5.60;;;3.30;83.70;;;;;;5014725;28;20030;-77
2021/01/17 00:30:26;;;;;;;19.48;6.95;;;3.30;83.60;;;;;;5014674;28;20029;-76
2021/01/17 00:32:56;;;;;;;12.45;5.22;;;3.30;83.70;;;;;;5014606;28;20053;-76
2021/01/17 00:35:24;;;;;;;10.27;4.55;;;3.30;83.70;;;;;;5014616;28;20022;-77
2021/01/17 00:37:54;;;;;;;13.90;4.97;;;3.30;83.70;;;;;;5014830;28;20033;-77
2021/01/17 00:40:20;;;;;;;11.85;4.30;;;3.30;83.70;;;;;;5014197;28;20101;-78
2021/01/17 00:42:47;;;;;;;14.02;4.78;;;3.30;83.70;;;;;;5013299;28;20472;-77
2021/01/17 00:45:14;;;;;;;16.00;5.30;;;3.30;83.70;;;;;;5014013;28;20026;-78
2021/01/17 00:47:44;;;;;;;12.88;5.25;;;3.30;83.70;;;;;;5014685;28;20026;-77
2021/01/17 00:50:12;;;;;;;13.43;4.50;;;3.30;83.80;;;;;;5014088;28;20476;-87
2021/01/17 00:52:38;;;;;;;13.52;5.05;;;3.30;83.80;;;;;;5014485;28;20038;-77
2021/01/17 00:55:04;;;;;;;14.48;4.93;;;3.30;83.80;;;;;;5014463;28;20022;-78
2021/01/17 00:57:30;;;;;;;15.02;5.68;;;3.30;83.90;;;;;;5029334;28;20551;-78
2021/01/17 00:59:55;;;;;;;14.27;5.75;;;3.20;83.90;;;;;;5012951;28;20109;-77
2021/01/17 01:02:21;;;;;;;15.55;5.35;;;3.20;83.90;;;;;;5013800;28;20045;-77
2021/01/17 01:04:47;;;;;;;18.30;6.53;;;3.20;83.90;;;;;;5013881;28;20030;-77
2021/01/17 01:07:12;;;;;;;16.95;4.93;;;3.30;84.10;;;;;;5012488;28;20119;-76
2021/01/17 01:09:38;;;;;;;12.82;4.47;;;3.20;84.10;;;;;;5013854;28;20026;-76
2021/01/17 01:12:04;;;;;;;11.52;4.78;;;3.20;84.20;;;;;;5013928;28;20413;-76
2021/01/17 01:14:30;;;;;;;14.75;5.05;;;3.20;84.30;;;;;;5012185;28;20530;-77
2021/01/17 01:16:55;;;;;;;16.60;6.07;;;3.20;84.30;;;;;;5014650;28;20022;-79
2021/01/17 01:19:21;;;;;;;15.55;5.28;;;3.20;84.40;;;;;;5013750;28;20072;-77
2021/01/17 01:21:47;;;;;;;14.82;6.15;;;3.20;84.40;;;;;;5013812;28;20101;-78
2021/01/17 01:24:14;;;;;;;12.75;5.25;;;3.20;84.50;;;;;;5011966;28;20050;-79
2021/01/17 01:26:42;;;;;;;13.98;5.15;;;3.20;84.60;;;;;;5012591;28;20022;-78
2021/01/17 01:29:09;;;;;;;16.88;5.57;;;3.20;84.70;;;;;;5013333;28;20029;-78
2021/01/17 01:31:35;;;;;;;16.48;5.50;;;3.10;84.80;;;;;;5011984;28;20120;-78
2021/01/17 01:34:03;;;;;;;19.33;6.05;;;3.10;84.90;;;;;;5013620;28;20026;-78
2021/01/17 01:36:34;;;;;;;14.25;5.65;;;3.10;85.00;;;;;;5013264;28;20026;-78
2021/01/17 01:39:00;;;;;;;15.20;5.75;;;3.10;85.00;;;;;;5013572;28;20104;-78
2021/01/17 01:41:27;;;;;;;16.48;6.10;;;3.10;85.00;;;;;;5012234;28;20124;-77
2021/01/17 01:43:53;;;;;;;12.98;5.47;;;3.10;85.10;;;;;;5013704;28;20459;-77
2021/01/17 01:46:22;;;;;;;13.32;4.85;;;3.10;85.20;;;;;;5028605;28;20108;-77
2021/01/17 01:48:48;;;;;;;11.73;5.13;;;3.10;85.20;;;;;;5013452;28;20531;-77
2021/01/17 01:51:16;;;;;;;14.75;6.38;;;3.20;85.30;;;;;;5013249;28;20105;-92
2021/01/17 01:53:42;;;;;;;12.57;4.90;;;3.10;85.40;;;;;;5012407;28;20171;-78
2021/01/17 01:56:08;;;;;;;15.85;5.03;;;3.10;85.40;;;;;;5012048;28;20465;-77
2021/01/17 01:58:37;;;;;;;17.05;5.68;;;3.10;85.40;;;;;;5013030;28;20399;-77
2021/01/17 02:01:03;;;;;;;17.10;5.05;;;3.10;85.50;;;;;;5012068;28;20137;-77
2021/01/17 02:03:29;;;;;;;13.05;5.93;;;3.10;85.50;;;;;;5013231;28;20033;-78
2021/01/17 02:05:55;;;;;;;12.82;5.20;;;3.10;85.60;;;;;;5013291;28;20026;-77
2021/01/17 02:08:40;;;;;;;16.05;6.28;;;3.10;85.70;;;;;;5011563;28;20026;-77
2021/01/17 02:11:33;;;;;;;12.45;5.43;;;3.10;85.80;;;;;;5013532;28;20112;-77
2021/01/17 02:14:23;;;;;;;16.35;4.65;;;3.10;85.80;;;;;;5012750;28;20029;-77
2021/01/17 02:16:52;;;;;;;16.08;6.05;;;3.10;85.80;;;;;;5030835;28;20033;-77
2021/01/17 02:19:20;;;;;;;13.90;5.28;;;3.10;85.80;;;;;;5021564;28;20018;-78
2021/01/17 02:21:56;;;;;;;15.07;6.05;;;3.10;85.90;;;;;;5015995;28;20464;-77
2021/01/17 02:24:34;;;;;;;17.65;5.68;;;3.10;85.90;;;;;;5020380;28;20057;-78
2021/01/17 02:27:01;;;;;;;15.05;5.18;;;3.10;86.00;;;;;;5040368;28;20037;-76
2021/01/17 02:29:28;;;;;;;17.33;5.95;;;3.10;86.00;;;;;;5024143;28;20022;-78
2021/01/17 02:32:00;;;;;;;15.63;5.25;;;3.10;85.90;;;;;;5013686;28;20058;-77
2021/01/17 02:34:27;;;;;;;13.02;5.47;;;3.20;86.10;;;;;;5012230;28;20451;-78
2021/01/17 02:37:07;;;;;;;20.13;7.10;;;3.20;86.00;;;;;;5013321;28;20022;-78
2021/01/17 02:39:52;;;;;;;20.42;5.25;;;3.20;86.10;;;;;;5012970;28;20077;-77
2021/01/17 02:42:18;;;;;;;15.43;4.70;;;3.20;86.10;;;;;;5013603;28;20117;-91
2021/01/17 02:44:46;;;;;;;15.65;5.38;;;3.20;86.10;;;;;;5013361;28;20106;-78
2021/01/17 02:47:12;;;;;;;19.65;5.50;;;3.20;86.10;;;;;;5012838;28;20026;-77
2021/01/17 02:49:37;;;;;;;17.30;6.82;;;3.20;86.20;;;;;;5012766;28;20026;-78
2021/01/17 02:52:06;;;;;;;17.60;5.03;;;3.20;86.30;;;;;;5012636;28;20064;-78
2021/01/17 02:54:34;;;;;;;11.30;4.88;;;3.20;86.40;;;;;;5012384;28;20022;-78
2021/01/17 02:57:09;;;;;;;15.35;6.15;;;3.20;86.60;;;;;;5012586;28;20037;-78
2021/01/17 03:00:00;;;;;;;12.98;6.05;;;3.20;86.60;;;;;;5012462;28;20026;-77
2021/01/17 03:02:28;;;;;;;;;;;3.20;86.70;;;;;;5005743;28;20049;-78
2021/01/17 03:04:59;;;;;;;15.63;6.72;;;3.10;86.60;;;;;;5011326;28;19909;-77
2021/01/17 03:07:29;;;;;;;22.30;5.63;;;3.10;86.90;;;;;;5012309;28;20048;-77
2021/01/17 03:09:55;;;;;;;16.60;5.38;;;3.10;86.60;;;;;;5012528;28;20038;-78
2021/01/17 03:12:21;;;;;;;14.80;4.75;;;3.10;86.60;;;;;;5012506;28;20026;-84
2021/01/17 03:14:48;;;;;;;16.85;5.05;;;3.20;86.70;;;;;;5011314;28;20022;-78
2021/01/17 03:17:14;;;;;;;22.40;6.07;;;3.10;86.70;;;;;;5012537;28;20109;-78
2021/01/17 03:19:40;;;;;;;15.90;5.00;;;3.20;86.80;;;;;;5010934;28;20129;-78
2021/01/17 03:22:05;;;;;;;14.90;6.30;;;3.10;86.70;;;;;;5011292;28;20432;-78
2021/01/17 03:24:31;;;;;;;18.80;5.63;;;3.10;86.70;;;;;;5012595;28;20054;-77
2021/01/17 03:27:16;;;;;;;12.07;4.30;;;3.20;86.80;;;;;;5012551;28;20030;-77
2021/01/17 03:29:42;;;;;;;17.58;5.20;;;3.20;86.90;;;;;;5010788;28;20026;-77
2021/01/17 03:32:08;;;;;;;14.25;4.70;;;3.20;87.00;;;;;;5011877;28;20033;-77
2021/01/17 03:34:33;;;;;;;20.73;5.82;;;3.20;87.00;;;;;;5013976;28;20587;-77
2021/01/17 03:36:59;;;;;;;15.18;5.47;;;3.20;87.20;;;;;;5014530;28;20080;-77
2021/01/17 03:39:25;;;;;;;11.35;4.80;;;3.20;87.20;;;;;;5014083;28;20026;-77
2021/01/17 03:41:51;;;;;;;18.00;4.75;;;3.20;87.20;;;;;;5014603;28;20033;-76
2021/01/17 03:44:16;;;;;;;14.20;5.45;;;3.20;87.20;;;;;;5015357;28;20382;-77
2021/01/17 03:46:42;;;;;;;15.13;5.85;;;3.20;87.30;;;;;;5015377;28;20049;-77
2021/01/17 03:49:08;;;;;;;17.50;5.78;;;3.20;87.40;;;;;;5014539;28;20026;-77
2021/01/17 03:51:36;;;;;;;13.57;5.45;;;3.20;87.50;;;;;;5030514;28;20087;-76
2021/01/17 03:54:02;;;;;;;20.40;5.40;;;3.20;87.60;;;;;;5015484;28;20022;-76
2021/01/17 03:56:28;;;;;;;13.55;5.10;;;3.20;87.60;;;;;;5015234;28;20471;-77
2021/01/17 03:58:53;;;;;;;16.58;4.80;;;3.20;87.60;;;;;;5013917;28;20033;-77
2021/01/17 04:01:19;;;;;;;17.30;4.93;;;3.20;87.60;;;;;;5015311;28;20034;-76
2021/01/17 04:03:44;;;;;;;14.38;4.43;;;3.20;87.60;;;;;;5013682;28;20498;-76
2021/01/17 04:06:10;;;;;;;15.82;5.35;;;3.20;87.60;;;;;;5014926;28;20033;-76
2021/01/17 04:08:36;;;;;;;12.18;5.35;;;3.20;87.60;;;;;;5013571;28;20488;-77
2021/01/17 04:11:01;;;;;;;13.93;4.55;;;3.20;87.70;;;;;;5015041;28;20095;-77
2021/01/17 04:13:27;;;;;;;12.27;4.28;;;3.20;87.80;;;;;;5013512;28;20026;-78
2021/01/17 04:15:53;;;;;;;12.40;4.20;;;3.20;87.80;;;;;;5013778;28;20026;-78
2021/01/17 04:18:18;;;;;;;15.23;4.63;;;3.20;87.90;;;;;;5030414;28;20022;-78
2021/01/17 04:20:44;;;;;;;14.75;4.57;;;3.10;88.00;;;;;;5014669;28;20030;-79
2021/01/17 04:23:10;;;;;;;13.60;4.65;;;3.10;88.10;;;;;;5013460;28;20030;-79
2021/01/17 04:25:35;;;;;;;14.63;4.47;;;3.10;88.20;;;;;;5013078;28;20025;-77
2021/01/17 04:28:01;;;;;;;17.08;5.43;;;3.10;88.40;;;;;;5014885;28;20037;-78
2021/01/17 04:30:31;;;;;;;11.38;3.30;;;3.10;88.50;;;;;;5013088;28;20026;-79
2021/01/17 04:32:57;;;;;;;10.52;4.25;;;3.10;88.50;;;;;;5013500;28;20029;-77
2021/01/17 04:35:23;;;;;;;11.52;4.20;;;3.10;88.60;;;;;;5014840;28;20026;-77
2021/01/17 04:37:49;;;;;;;12.13;4.28;;;3.10;88.60;;;;;;5014705;28;20030;-78
2021/01/17 04:40:16;;;;;;;17.55;5.80;;;3.10;88.70;;;;;;5013530;28;20361;-77
2021/01/17 04:42:47;;;;;;;15.05;4.00;;;3.10;88.70;;;;;;5012760;28;20026;-78
2021/01/17 04:45:17;;;;;;;15.55;5.45;;;3.10;88.80;;;;;;5013442;28;20148;-79
2021/01/17 04:47:46;;;;;;;15.73;4.57;;;3.10;88.90;;;;;;5014457;28;20017;-78
2021/01/17 04:50:16;;;;;;;12.88;4.60;;;3.10;88.90;;;;;;5013158;28;20018;-77
2021/01/17 04:52:54;;;;;;;10.52;3.47;;;3.10;88.90;;;;;;5014123;28;20054;-78
2021/01/17 04:55:23;;;;;;;18.05;5.28;;;3.10;89.00;;;;;;5013145;28;20026;-78
2021/01/17 04:58:08;;;;;;;17.23;4.82;;;3.10;89.20;;;;;;5012687;28;20375;-79
2021/01/17 05:00:37;;;;;;;11.65;4.28;;;3.10;89.30;;;;;;5014390;28;20034;-80
2021/01/17 05:03:50;;;;;;;12.68;4.47;;;3.00;89.40;;;;;;5012955;28;20029;-79
2021/01/17 05:06:25;;;;;;;13.15;5.00;;;3.10;89.60;;;;;;5000992;28;20049;-79
2021/01/17 05:09:03;;;;;;;15.00;4.53;;;3.00;89.70;;;;;;5013709;28;20026;-79
2021/01/17 05:11:39;;;;;;;16.23;4.45;;;3.00;89.80;;;;;;5012962;28;20317;-82
2021/01/17 05:14:09;;;;;;;11.65;4.25;;;3.10;90.00;;;;;;5014259;28;20053;-79
2021/01/17 05:16:39;;;;;;;12.55;5.25;;;3.00;89.90;;;;;;5013470;28;20037;-81
2021/01/17 05:19:05;;;;;;;11.02;4.93;;;3.00;90.00;;;;;;5014059;28;20026;-80
2021/01/17 05:21:34;;;;;;;14.80;4.30;;;3.10;90.00;;;;;;5013142;28;20029;-83
2021/01/17 05:24:01;;;;;;;14.38;4.63;;;3.10;90.10;;;;;;5013459;28;20530;-79
2021/01/17 05:26:27;;;;;;;11.80;4.97;;;3.10;90.10;;;;;;5013445;28;20052;-79
2021/01/17 05:28:53;;;;;;;20.77;4.40;;;3.10;90.10;;;;;;5011969;28;20460;-79
2021/01/17 05:31:23;;;;;;;15.57;3.70;;;3.10;90.20;;;;;;5013342;28;20464;-79
2021/01/17 05:33:49;;;;;;;14.80;3.75;;;3.10;90.20;;;;;;5011850;28;20045;-79
2021/01/17 05:36:16;;;;;;;9.63;3.15;;;3.10;90.20;;;;;;5013101;28;20458;-78
2021/01/17 05:38:42;;;;;;;11.57;4.18;;;3.10;90.30;;;;;;5011736;28;20368;-79
2021/01/17 05:41:24;;;;;;;9.65;3.28;;;3.10;90.30;;;;;;5013445;28;20382;-78
2021/01/17 05:43:49;;;;;;;;;;;3.10;90.30;;;;;;5013502;28;20030;-79
2021/01/17 05:46:15;;;;;;;14.82;4.43;;;3.00;90.30;;;;;;5012071;28;20020;-79
2021/01/17 05:48:40;;;;;;;18.00;3.80;;;3.10;90.40;;;;;;5012987;28;20450;-80
2021/01/17 05:51:06;;;;;;;13.95;3.65;;;3.00;90.40;;;;;;5013229;28;20037;-79
2021/01/17 05:53:33;;;;;;;13.30;3.42;;;3.10;90.50;;;;;;5013170;28;20029;-84
2021/01/17 05:56:00;;;;;;;9.48;3.45;;;3.10;90.60;;;;;;5012890;28;20026;-79
2021/01/17 05:58:31;;;;;;;12.50;3.88;;;3.10;90.60;;;;;;5028013;28;20511;-79
2021/01/17 06:01:01;;;;;;;;;;;3.10;90.70;;;;;;5011933;28;20521;-79
2021/01/17 06:03:32;;;;;;;5.30;2.50;;;3.10;90.70;;;;;;5011839;28;19950;-80
2021/01/17 06:06:00;;;;;;;7.95;2.72;;;3.10;90.80;;;;;;5012923;28;20030;-79
2021/01/17 06:08:26;;;;;;;5.97;2.08;;;3.10;90.90;;;;;;5011649;28;20059;-78
2021/01/17 06:10:55;;;;;;;2.83;1.55;;;3.10;91.00;;;;;;5011327;28;20025;-78
2021/01/17 06:13:27;;;;;;;7.20;1.63;;;3.10;91.00;;;;;;5011907;28;20029;-79
2021/01/17 06:15:53;;;;;;;2.72;1.33;;;3.20;91.10;;;;;;5012655;28;20026;-79
2021/01/17 06:18:21;;;;;;;2.58;1.58;;;3.10;91.20;;;;;;5011621;28;20033;-79
2021/01/17 06:20:48;;;;;;;3.10;1.08;;;3.10;91.20;;;;;;5011242;28;20026;-79
2021/01/17 06:23:20;;;;;;;5.93;1.92;;;3.20;91.40;;;;;;5011419;28;20029;-80
2021/01/17 06:26:00;;;;;;;4.07;1.60;;;3.20;91.40;;;;;;5012159;28;20369;-80
2021/01/17 06:28:40;;;;;;;2.63;1.35;;;3.20;91.50;;;;;;5013039;28;20018;-78
2021/01/17 06:31:07;;;;;;;2.05;1.35;;;3.20;91.50;;;;;;5016415;28;20025;-79
2021/01/17 06:33:33;;;;;;;3.75;1.38;;;3.20;91.60;;;;;;5031771;28;20104;-79
2021/01/17 06:36:16;;;;;;;2.75;1.48;;;3.20;91.70;;;;;;5031045;28;20455;-79
2021/01/17 06:38:42;;;;;;;4.95;1.45;;;3.20;91.70;;;;;;5030757;28;20088;-81
2021/01/17 06:41:08;;;;;;;1.27;1.20;;;3.20;91.80;;;;;;5032645;28;20455;-79
2021/01/17 06:43:40;;;;;;;2.20;1.17;;;3.20;91.90;;;;;;5031003;28;20021;-79
2021/01/17 06:46:06;;;;;;;3.80;1.40;;;3.20;92.00;;;;;;5032610;28;20030;-79
2021/01/17 06:48:32;;;;;;;4.10;1.88;;;3.10;92.00;;;;;;5032822;28;20017;-79
2021/01/17 06:51:16;;;;;;;2.28;1.08;;;3.20;92.20;;;;;;5030505;28;20112;-79
2021/01/17 06:53:51;;;;;;;1.50;1.10;;;3.20;92.40;;;;;;5030819;28;20025;-79
2021/01/17 06:56:19;;;;;;;2.05;1.30;;;3.20;92.40;;;;;;5031009;28;20068;-79
2021/01/17 06:58:46;;;;;;;2.28;1.27;;;3.20;92.50;;;;;;5031699;28;20029;-79
2021/01/17 07:01:14;;;;;;;1.35;1.00;;;3.20;92.50;;;;;;5030982;28;20388;-80
2021/01/17 07:03:54;;;;;;;0.85;0.82;;;3.20;92.60;;;;;;5031792;28;20490;-80
2021/01/17 07:06:39;;;;;;;2.35;0.98;;;3.30;92.60;;;;;;5030658;28;20022;-79
2021/01/17 07:09:25;;;;;;;2.33;0.95;;;3.20;92.60;;;;;;5032079;28;20111;-79
2021/01/17 07:12:05;;;;;;;1.95;1.45;;;3.30;92.70;;;;;;5035576;28;20048;-80
2021/01/17 07:14:33;;;;;;;1.95;0.82;;;3.20;92.70;;;;;;5034600;28;20036;-79
2021/01/17 07:17:01;;;;;;;0.70;0.70;;;3.20;92.80;;;;;;5035088;28;20029;-79
2021/01/17 07:19:33;;;;;;;1.83;1.52;;;3.20;92.80;;;;;;5035454;28;20025;-79
2021/01/17 07:22:05;;;;;;;0.95;0.88;;;3.30;92.90;;;;;;5034727;28;20033;-79
2021/01/17 07:24:33;;;;;;;1.25;1.15;;;3.30;92.90;;;;;;5035907;28;20045;-79
2021/01/17 07:27:24;;;;;;;2.35;1.33;;;3.30;93.00;;;;;;5037259;28;20245;-79
2021/01/17 07:29:53;;;;;;;3.35;1.50;;;3.30;93.10;;;;;;5045912;28;20080;-79
2021/01/17 07:32:35;;;;;;;2.58;1.02;;;3.20;93.20;;;;;;5051650;28;20045;-78
2021/01/17 07:35:10;;;;;;;1.50;1.30;;;3.30;93.30;;;;;;5050641;28;20043;-79
2021/01/17 07:37:43;;;;;;;1.88;0.95;;;3.30;93.40;;;;;;5043729;28;20026;-78
2021/01/17 07:40:09;;;;;;;3.25;1.60;;;3.30;93.50;;;;;;5036007;28;20486;-79
2021/01/17 07:42:37;;;;;;;2.35;1.20;;;3.30;93.50;;;;;;5035921;28;20037;-79
2021/01/17 07:45:21;;;;;;;1.83;1.40;;;3.30;93.60;;;;;;5033871;28;20443;-79
2021/01/17 07:47:47;;;;;;;2.47;1.13;;;3.40;93.60;;;;;;5034060;28;20013;-79
2021/01/17 07:50:13;;;;;;;3.80;1.70;;;3.40;93.70;;;;;;5034244;28;20026;-78
2021/01/17 07:52:47;;;;;;;3.60;2.03;;;3.30;93.70;;;;;;5034087;28;20089;-80
2021/01/17 07:55:13;;;;;;;4.97;1.70;;;3.30;93.80;;;;;;5035201;28;20021;-79
2021/01/17 07:57:45;;;;;;;5.43;2.15;;;3.30;93.80;;;;;;5033738;28;20105;-78
2021/01/17 08:00:10;;;;;;;;;;;3.30;94.20;;;;;;5035423;28;20029;-79
2021/01/17 08:02:37;;;;;;;3.67;1.52;;;3.20;94.00;;;;;;5033886;28;19936;-78
2021/01/17 08:05:04;;;;;;;3.95;1.85;;;3.20;94.00;;;;;;5034756;28;20033;-79
2021/01/17 08:07:32;;;;;;;1.90;1.20;;;3.30;94.00;;;;;;5033352;28;20018;-79
2021/01/17 08:09:58;;;;;;;2.30;1.00;;;3.30;94.00;;;;;;5033680;28;20037;-79
2021/01/17 08:12:41;;;;;;;3.72;2.13;;;3.30;94.00;;;;;;5034165;28;20454;-80
2021/01/17 08:15:22;;;;;;;5.93;1.95;;;3.40;94.00;;;;;;5033353;28;20400;-80
2021/01/17 08:17:48;;;;;;;3.00;1.15;;;3.40;94.00;;;;;;5034733;28;20018;-80
2021/01/17 08:20:27;;;;;;;1.50;1.20;;;3.40;94.00;;;;;;5034379;28;20039;-80
2021/01/17 08:23:04;;;;;;;3.03;1.30;;;3.40;94.00;;;;;;5034548;28;20029;-79
2021/01/17 08:25:47;;;;;;;0.98;0.98;;;3.50;93.90;;;;;;5033140;28;20423;-79
2021/01/17 08:28:32;;;;;;;1.80;1.30;;;3.50;93.90;;;;;;5034283;28;20406;-79
2021/01/17 08:30:58;;;;;;;1.95;0.93;;;3.50;93.90;;;;;;5033165;28;20056;-79
2021/01/17 08:33:26;;;;;;;1.27;0.98;;;3.50;94.00;;;;;;5034675;28;20022;-79
2021/01/17 08:35:52;;;;;;;2.10;0.80;;;3.60;94.10;;;;;;5032635;28;20026;-80
2021/01/17 08:38:19;;;;;;;1.60;0.75;;;3.60;94.00;;;;;;5033005;28;20553;-79
2021/01/17 08:40:47;;;;;;;2.08;0.98;;;3.60;94.00;;;;;;5032784;28;20025;-87
2021/01/17 08:43:15;;;;;;;1.52;1.02;;;3.60;94.00;;;;;;5033364;28;20021;-79
2021/01/17 08:45:42;;;;;;;2.45;1.48;;;3.60;94.20;;;;;;5033954;28;20021;-79
2021/01/17 08:48:16;;;;;;;1.67;1.10;;;3.60;94.30;;;;;;5032379;28;20356;-78
2021/01/17 08:50:50;;;;;;;1.15;0.80;;;3.70;94.30;;;;;;5032447;28;20386;-78
2021/01/17 08:53:31;;;;;;;1.60;0.90;;;3.70;94.30;;;;;;5032594;28;20037;-77
2021/01/17 08:56:14;;;;;;;1.75;0.82;;;3.80;94.30;;;;;;5033713;28;20021;-79
2021/01/17 08:58:41;;;;;;;2.72;1.10;;;3.80;94.20;;;;;;5033940;28;20021;-79
2021/01/17 09:01:08;;;;;;;2.08;1.10;;;3.80;94.20;;;;;;5033872;28;20042;-80
2021/01/17 09:03:47;;;;;;;1.58;1.48;;;3.80;94.10;;;;;;5032609;28;20112;-80
2021/01/17 09:06:13;;;;;;;1.73;0.90;;;3.90;94.10;;;;;;5032161;28;20017;-78
2021/01/17 09:08:53;;;;;;;3.03;1.48;;;3.90;94.10;;;;;;5032407;28;20021;-78
2021/01/17 09:11:28;;;;;;;1.43;1.17;;;3.90;94.10;;;;;;5032317;28;20112;-79
2021/01/17 09:14:13;;;;;;;2.75;1.17;;;3.90;94.20;;;;;;5032900;28;20401;-79
2021/01/17 09:16:54;;;;;;;2.88;1.20;;;4.00;94.10;;;;;;5033464;28;20352;-80
2021/01/17 09:19:22;;;;;;;1.20;1.10;;;4.00;94.10;;;;;;5033897;28;20132;-78
2021/01/17 09:21:53;;;;;;;2.95;0.98;;;4.00;94.10;;;;;;5033713;28;20037;-80
2021/01/17 09:24:24;;;;;;;1.77;1.17;;;4.10;94.10;;;;;;5032414;28;20041;-79
2021/01/17 09:26:51;;;;;;;;;;;4.10;94.10;;;;;;5033899;28;20025;-80
2021/01/17 09:29:25;;;;;;;2.35;1.30;;;4.10;94.20;;;;;;5032974;28;19924;-78
2021/01/17 09:32:00;;;;;;;2.83;1.52;;;4.10;94.20;;;;;;5031115;28;20033;-79
2021/01/17 09:34:31;;;;;;;6.53;1.80;;;4.20;94.20;;;;;;5033328;28;20022;-79
2021/01/17 09:36:58;;;;;;;;;;;4.20;94.30;;;;;;5033560;28;20017;-78
2021/01/17 09:39:35;;;;;;;2.03;1.25;;;4.20;94.30;;;;;;5033684;28;19928;-78
2021/01/17 09:42:03;;;;;;;2.00;0.98;;;4.30;94.20;;;;;;5031775;28;20108;-79
2021/01/17 09:44:31;;;;;;;3.22;1.10;;;4.30;94.20;;;;;;5033848;28;20022;-78
2021/01/17 09:46:57;;;;;;;4.78;1.83;;;4.40;94.20;;;;;;5031641;28;20103;-79
2021/01/17 09:49:26;;;;;;;3.35;1.52;;;4.40;94.20;;;;;;5033082;28;20109;-80
2021/01/17 09:51:53;;;;;;;5.03;2.20;;;4.40;94.10;;;;;;5032504;28;20047;-80
2021/01/17 09:54:19;;;;;;;5.47;2.03;;;4.30;94.20;;;;;;5031594;28;20142;-80
2021/01/17 09:56:45;;;;;;;4.68;2.05;;;4.40;94.30;;;;;;5031524;28;20439;-79
2021/01/17 09:59:19;;;;;;;4.07;2.17;;;4.40;94.30;;;;;;5032766;28;20452;-80
2021/01/17 10:01:46;;;;;;;4.20;2.40;;;4.40;94.40;;;;;;5031599;28;20037;-80
2021/01/17 10:04:26;;;;;;;4.65;1.70;;;4.40;94.40;;;;;;5030852;28;20116;-79
2021/01/17 10:06:54;;;;;;;3.38;2.00;;;4.60;94.40;;;;;;5032495;28;20014;-83
2021/01/17 10:09:21;;;;;;;4.57;1.70;;;4.50;94.30;;;;;;5032915;28;20109;-80
2021/01/17 10:11:53;;;;;;;3.88;1.90;;;4.50;94.30;;;;;;5032689;28;20029;-79
2021/01/17 10:14:24;;;;;;;7.35;2.35;;;4.50;94.30;;;;;;5032713;28;20040;-80
2021/01/17 10:16:51;;;;;;;11.75;3.33;;;4.50;94.40;;;;;;5032458;28;20032;-79
2021/01/17 10:19:32;;;;;;;6.88;2.72;;;4.40;94.50;;;;;;5032298;28;20077;-79
2021/01/17 10:21:59;;;;;;;7.00;2.35;;;4.60;94.50;;;;;;5032429;28;20088;-79
2021/01/17 10:24:28;;;;;;;3.40;2.08;;;4.70;94.50;;;;;;5032509;28;20051;-80
2021/01/17 10:27:15;;;;;;;3.50;1.92;;;4.70;94.40;;;;;;5030762;28;20175;-82
2021/01/17 10:29:42;;;;;;;4.93;1.92;;;4.80;94.30;;;;;;5031557;28;20104;-80
2021/01/17 10:32:15;;;;;;;6.90;2.22;;;4.80;94.40;;;;;;5032000;28;20106;-81
2021/01/17 10:34:49;;;;;;;2.60;1.42;;;4.80;94.30;;;;;;5032302;28;20048;-81
2021/01/17 10:37:16;;;;;;;2.95;1.45;;;4.80;94.40;;;;;;5030432;28;20033;-80
2021/01/17 10:39:42;;;;;;;3.42;1.40;;;4.90;94.40;;;;;;5032318;28;20029;-80
2021/01/17 10:42:10;;;;;;;1.65;1.00;;;4.90;94.40;;;;;;5030407;28;20025;-80
2021/01/17 10:45:05;;;;;;;1.30;0.95;;;5.00;94.40;;;;;;5036085;28;20029;-79
2021/01/17 10:47:49;;;;;;;3.75;1.08;;;5.00;94.40;;;;;;5035112;28;20029;-81
2021/01/17 10:50:24;;;;;;;6.35;2.30;;;5.00;94.40;;;;;;5035600;28;20033;-79
2021/01/17 10:53:11;;;;;;;6.57;2.13;;;5.10;94.40;;;;;;5035908;28;20026;-80
2021/01/17 10:55:39;;;;;;;7.93;3.90;;;5.00;94.40;;;;;;5034991;28;20024;-81
2021/01/17 10:58:06;;;;;;;9.32;3.05;;;5.00;94.60;;;;;;5035623;28;20042;-81
2021/01/17 11:00:32;;;;;;;7.13;3.33;;;5.00;94.70;;;;;;5034606;28;20475;-80
2021/01/17 11:03:10;;;;;;;9.10;3.80;;;4.90;94.70;;;;;;5035365;28;20035;-81
2021/01/17 11:05:36;;;;;;;5.93;2.40;;;4.90;94.80;;;;;;5036280;28;20104;-80
2021/01/17 11:08:03;;;;;;;7.35;2.28;;;4.90;94.90;;;;;;5035539;28;20057;-81
2021/01/17 11:10:29;;;;;;;6.30;2.70;;;4.90;95.10;;;;;;5034475;28;20489;-80
2021/01/17 11:12:54;;;;;;;8.88;3.45;;;4.90;95.10;;;;;;5034803;28;20036;-80
2021/01/17 11:15:21;;;;;;;5.75;2.75;;;4.90;95.20;;;;;;5035530;28;20021;-80
2021/01/17 11:17:57;;;;;;;9.25;3.78;;;4.90;95.20;;;;;;5034840;28;20018;-75
2021/01/17 11:20:31;;;;;;;6.38;2.83;;;5.00;95.20;;;;;;5032178;28;20041;-74
2021/01/17 11:23:07;;;;;;;6.13;2.67;;;5.10;95.20;;;;;;5030897;28;20072;-74
2021/01/17 11:25:34;;;;;;;4.05;2.33;;;5.30;95.20;;;;;;5032878;28;20191;-74
2021/01/17 11:28:01;;;;;;;3.08;1.60;;;5.40;95.10;;;;;;5032162;28;20029;-76
2021/01/17 11:30:29;;;;;;;4.55;1.63;;;5.50;95.00;;;;;;5031033;28;20142;-73
2021/01/17 11:33:08;;;;;;;3.25;1.13;;;5.70;94.90;;;;;;5031721;28;20076;-74
2021/01/17 11:35:35;;;;;;;5.45;2.08;;;5.90;94.80;;;;;;5030961;28;20029;-74
2021/01/17 11:38:01;;;;;;;3.45;1.67;;;6.00;94.70;;;;;;5030299;28;20352;-74
2021/01/17 11:40:26;;;;;;;6.28;2.78;;;6.00;94.70;;;;;;5030791;28;20455;-74
2021/01/17 11:43:11;;;;;;;3.38;1.75;;;6.10;94.80;;;;;;5030747;28;20103;-73
2021/01/17 11:45:43;;;;;;;5.05;1.83;;;6.10;94.80;;;;;;5031260;28;20018;-74
2021/01/17 11:48:10;;;;;;;4.65;1.67;;;6.10;94.80;;;;;;5012691;28;20499;-74
2021/01/17 11:50:46;;;;;;;3.80;1.98;;;6.20;94.90;;;;;;5010257;28;20096;-78
2021/01/17 11:53:12;;;;;;;3.70;1.58;;;6.20;94.90;;;;;;5020606;28;20025;-78
2021/01/17 11:55:39;;;;;;;2.63;1.33;;;6.10;95.00;;;;;;5034353;28;20029;-81
2021/01/17 11:58:09;;;;;;;5.45;1.85;;;6.10;95.10;;;;;;5027461;28;20068;-81
2021/01/17 12:00:56;;;;;;;2.03;1.35;;;6.20;95.20;;;;;;5030699;28;20034;-79
2021/01/17 12:03:26;;;;;;;2.42;1.45;;;6.20;95.20;;;;;;5014397;28;20030;-81
2021/01/17 12:06:12;;;;;;;3.03;1.52;;;6.20;95.20;;;;;;5027771;28;20034;-80
2021/01/17 12:08:50;;;;;;;7.45;2.20;;;6.10;95.20;;;;;;5029241;28;20033;-80
2021/01/17 12:11:35;;;;;;;1.85;1.17;;;6.10;95.30;;;;;;5026505;28;20032;-81
2021/01/17 12:14:05;;;;;;;3.45;1.60;;;6.10;95.40;;;;;;5032770;28;20107;-76
2021/01/17 12:16:31;;;;;;;4.50;1.30;;;6.10;95.40;;;;;;5025064;28;20080;-79
2021/01/17 12:18:57;;;;;;;6.75;1.98;;;6.10;95.40;;;;;;5034434;28;20029;-81
2021/01/17 12:21:24;;;;;;;3.22;1.58;;;6.10;95.50;;;;;;5011834;28;20040;-84
2021/01/17 12:23:50;;;;;;;5.35;1.65;;;6.10;95.60;;;;;;5012966;28;20050;-78
2021/01/17 12:26:17;;;;;;;5.85;1.40;;;6.10;95.60;;;;;;5015594;28;20044;-81
2021/01/17 12:28:43;;;;;;;4.03;1.55;;;6.20;95.60;;;;;;5014515;28;20029;-83
2021/01/17 12:31:13;;;;;;;3.25;1.10;;;6.20;95.60;;;;;;5014121;28;20411;-78
2021/01/17 12:33:39;;;;;;;4.30;1.42;;;6.30;95.60;;;;;;5014393;28;20017;-71
2021/01/17 12:36:10;;;;;;;3.20;1.27;;;6.40;95.70;;;;;;5013910;28;20116;-72
2021/01/17 12:38:35;;;;;;;3.67;1.27;;;6.50;95.60;;;;;;5014624;28;20026;-72
2021/01/17 12:41:06;;;;;;;4.72;1.63;;;6.50;95.90;;;;;;5016637;28;20537;-77
2021/01/17 12:43:31;;;;;;;2.15;1.38;;;6.60;95.60;;;;;;5013858;28;20037;-71
2021/01/17 12:45:57;;;;;;;2.70;1.48;;;6.70;95.60;;;;;;5016330;28;20022;-72
2021/01/17 12:48:23;;;;;;;2.90;1.35;;;6.70;95.50;;;;;;4994786;28;20046;-72
2021/01/17 12:50:48;;;;;;;1.88;1.20;;;6.70;95.50;;;;;;5018102;28;20163;-71
2021/01/17 12:53:14;;;;;;;5.78;1.40;;;6.70;95.60;;;;;;5012911;28;20060;-72
2021/01/17 12:55:45;;;;;;;0.85;0.77;;;6.70;95.50;;;;;;5016498;28;20423;-72
2021/01/17 12:58:10;;;;;;;2.70;1.05;;;6.80;95.50;;;;;;5013586;28;20033;-72
2021/01/17 13:00:36;;;;;;;1.63;0.95;;;6.80;95.50;;;;;;5018940;28;20022;-72
2021/01/17 13:03:02;;;;;;;4.72;1.98;;;6.80;95.50;;;;;;5017209;28;20140;-73
2021/01/17 13:05:27;;;;;;;4.40;1.25;;;6.80;95.50;;;;;;5021204;28;20030;-73
2021/01/17 13:07:53;;;;;;;2.22;1.10;;;6.80;95.50;;;;;;5018105;28;20025;-71